createdAt,value
2018-12-02T00:01:59.899Z,15.63
2018-12-02T00:04:30.509Z,14.73
2018-12-02T00:07:01.399Z,15.57
2018-12-02T00:09:32.420Z,13.57
2018-12-02T00:12:03.960Z,15.13
2018-12-02T00:14:35.138Z,14.57
2018-12-02T00:17:06.499Z,13.70
2018-12-02T00:19:37.558Z,10.33
2018-12-02T00:22:08.579Z,14.47
2018-12-02T00:24:39.919Z,13.67
2018-12-02T00:27:10.175Z,13.67
2018-12-02T00:29:41.073Z,11.53
2018-12-02T00:32:12.118Z,15.63
2018-12-02T00:34:43.078Z,10.30
2018-12-02T00:37:13.509Z,8.13
2018-12-02T00:39:44.038Z,13.73
2018-12-02T00:42:15.298Z,17.37
2018-12-02T00:44:46.341Z,13.07
2018-12-02T00:47:17.704Z,14.77
2018-12-02T00:49:49.319Z,11.93
2018-12-02T00:52:20.089Z,12.07
2018-12-02T00:54:50.727Z,14.00
2018-12-02T00:57:21.846Z,17.00
2018-12-02T00:59:52.899Z,18.13
2018-12-02T01:02:23.939Z,14.97
2018-12-02T01:04:54.886Z,16.57
2018-12-02T01:07:25.698Z,17.37
2018-12-02T01:09:56.459Z,15.40
2018-12-02T01:12:27.338Z,16.10
2018-12-02T01:14:57.910Z,13.73
2018-12-02T01:17:28.978Z,17.10
2018-12-02T01:19:59.998Z,16.47
2018-12-02T01:22:30.999Z,15.70
2018-12-02T01:25:02.020Z,14.43
2018-12-02T01:27:32.360Z,14.73
2018-12-02T01:30:03.438Z,13.80
2018-12-02T01:32:34.499Z,15.43
2018-12-02T01:35:05.839Z,16.70
2018-12-02T01:37:37.217Z,19.77
2018-12-02T01:40:10.457Z,15.77
2018-12-02T01:42:41.217Z,17.33
2018-12-02T01:45:15.759Z,16.53
2018-12-02T01:47:46.818Z,16.83
2018-12-02T01:50:18.819Z,16.57
2018-12-02T01:52:57.840Z,16.00
2018-12-02T01:55:28.660Z,15.57
2018-12-02T01:58:00.558Z,14.73
2018-12-02T02:00:31.338Z,16.70
2018-12-02T02:03:02.359Z,15.87
2018-12-02T02:05:32.838Z,18.33
2018-12-02T02:08:03.777Z,15.93
2018-12-02T02:10:34.498Z,17.17
2018-12-02T02:13:04.977Z,16.83
2018-12-02T02:15:35.618Z,17.00
2018-12-02T02:18:06.580Z,15.27
2018-12-02T02:20:37.702Z,19.20
2018-12-02T02:23:08.757Z,18.13
2018-12-02T02:25:39.678Z,19.43
2018-12-02T02:28:10.369Z,17.57
2018-12-02T02:30:41.220Z,18.10
2018-12-02T02:33:11.939Z,15.93
2018-12-02T02:35:42.578Z,17.57
2018-12-02T02:38:13.698Z,16.20
2018-12-02T02:40:44.898Z,16.33
2018-12-02T02:43:16.080Z,18.00
2018-12-02T02:45:46.479Z,17.57
2018-12-02T02:48:17.541Z,19.80
2018-12-02T02:50:48.578Z,17.73
2018-12-02T02:53:19.919Z,19.13
2018-12-02T02:55:50.957Z,18.80
2018-12-02T02:58:22.063Z,16.57
2018-12-02T03:04:24.893Z,17.27
2018-12-02T03:06:55.775Z,17.77
2018-12-02T03:09:26.673Z,17.10
2018-12-02T03:11:58.013Z,17.43
2018-12-02T03:14:29.063Z,20.17
2018-12-02T03:17:00.113Z,16.23
2018-12-02T03:19:30.812Z,15.30
2018-12-02T03:22:01.394Z,14.83
2018-12-02T03:24:32.253Z,15.83
2018-12-02T03:27:03.272Z,18.03
2018-12-02T03:29:34.696Z,16.57
2018-12-02T03:32:05.699Z,16.43
2018-12-02T03:34:36.755Z,18.23
2018-12-02T03:37:07.793Z,19.83
2018-12-02T03:39:38.815Z,18.27
2018-12-02T03:42:10.513Z,18.30
2018-12-02T03:44:41.835Z,17.40
2018-12-02T03:47:13.233Z,18.37
2018-12-02T03:49:44.932Z,17.37
2018-12-02T03:52:15.915Z,20.53
2018-12-02T03:54:46.986Z,19.30
2018-12-02T03:57:18.013Z,18.37
2018-12-02T03:59:49.055Z,19.63
2018-12-02T04:02:20.854Z,17.57
2018-12-02T04:04:51.271Z,19.53
2018-12-02T04:07:22.198Z,19.67
2018-12-02T04:09:53.135Z,17.57
2018-12-02T04:12:24.175Z,18.27
2018-12-02T04:14:55.295Z,19.17
2018-12-02T04:17:26.316Z,18.67
2018-12-02T04:19:58.055Z,17.83
2018-12-02T04:22:28.834Z,19.17
2018-12-02T04:24:59.755Z,17.77
2018-12-02T04:27:31.724Z,19.47
2018-12-02T04:30:02.655Z,21.23
2018-12-02T04:32:33.854Z,21.07
2018-12-02T04:35:04.556Z,19.70
2018-12-02T04:37:35.295Z,18.37
2018-12-02T04:40:08.554Z,19.83
2018-12-02T04:42:39.315Z,20.80
2018-12-02T04:45:12.274Z,20.53
2018-12-02T04:47:43.295Z,19.33
2018-12-02T04:50:22.996Z,21.43
2018-12-02T04:52:54.195Z,22.30
2018-12-02T04:55:25.694Z,20.63
2018-12-02T04:57:56.735Z,21.33
2018-12-02T05:00:27.457Z,20.90
2018-12-02T05:02:58.476Z,21.83
2018-12-02T05:05:29.180Z,21.50
2018-12-02T05:08:00.254Z,23.43
2018-12-02T05:10:31.595Z,23.67
2018-12-02T05:13:02.516Z,22.73
2018-12-02T05:15:33.038Z,21.07
2018-12-02T05:18:04.737Z,20.27
2018-12-02T05:20:35.033Z,22.07
2018-12-02T05:23:06.276Z,22.17
2018-12-02T05:25:37.156Z,19.10
2018-12-02T05:28:08.134Z,20.33
2018-12-02T05:30:39.934Z,20.33
2018-12-02T05:33:11.913Z,20.27
2018-12-02T05:35:43.056Z,19.70
2018-12-02T05:38:14.014Z,22.00
2018-12-02T05:40:44.834Z,19.40
2018-12-02T05:43:15.415Z,20.23
2018-12-02T05:45:46.494Z,19.47
2018-12-02T05:48:17.593Z,20.20
2018-12-02T05:50:48.556Z,20.53
2018-12-02T05:53:19.473Z,18.80
2018-12-02T05:55:50.893Z,18.83
2018-12-02T05:58:22.035Z,18.33
2018-12-02T06:00:53.694Z,21.83
2018-12-02T06:03:24.734Z,20.23
2018-12-02T06:05:55.653Z,21.17
2018-12-02T06:08:26.553Z,19.57
2018-12-02T06:10:57.895Z,18.80
2018-12-02T06:13:29.494Z,20.10
2018-12-02T06:16:00.235Z,18.77
2018-12-02T06:18:30.914Z,20.47
2018-12-02T06:21:02.038Z,19.80
2018-12-02T06:23:33.333Z,20.97
2018-12-02T06:26:04.134Z,20.20
2018-12-02T06:28:34.614Z,20.97
2018-12-02T06:31:05.535Z,21.40
2018-12-02T06:33:36.575Z,21.83
2018-12-02T06:36:07.593Z,20.90
2018-12-02T06:38:39.239Z,19.40
2018-12-02T06:41:09.647Z,19.23
2018-12-02T06:43:41.035Z,22.10
2018-12-02T06:46:11.775Z,22.97
2018-12-02T06:48:42.835Z,19.83
2018-12-02T06:51:13.773Z,20.73
2018-12-02T06:53:45.253Z,18.43
2018-12-02T06:56:23.936Z,21.93
2018-12-02T06:59:12.574Z,18.87
2018-12-02T07:01:58.375Z,22.33
2018-12-02T07:04:32.873Z,20.27
2018-12-02T07:07:03.913Z,20.80
2018-12-02T07:09:35.026Z,20.37
2018-12-02T07:12:05.896Z,21.03
2018-12-02T07:14:36.398Z,20.63
2018-12-02T07:17:08.075Z,22.30
2018-12-02T07:19:45.453Z,22.23
2018-12-02T07:22:21.775Z,20.17
2018-12-02T07:24:56.847Z,21.50
2018-12-02T07:27:27.956Z,27.50
2018-12-02T07:29:58.973Z,24.10
2018-12-02T07:32:29.694Z,26.20
2018-12-02T07:35:20.140Z,24.70
2018-12-02T07:38:13.354Z,22.77
2018-12-02T07:41:00.118Z,21.90
2018-12-02T07:43:31.133Z,21.70
2018-12-02T07:46:02.193Z,23.60
2018-12-02T07:48:32.645Z,25.80
2018-12-02T07:51:03.558Z,25.20
2018-12-02T07:53:34.372Z,24.60
2018-12-02T07:56:05.993Z,24.57
2018-12-02T07:58:37.057Z,26.00
2018-12-02T08:01:08.113Z,25.10
2018-12-02T08:03:38.815Z,24.77
2018-12-02T08:06:09.473Z,25.07
2018-12-02T08:08:40.373Z,22.57
2018-12-02T08:11:11.188Z,24.20
2018-12-02T08:13:42.073Z,24.23
2018-12-02T08:16:13.053Z,27.30
2018-12-02T08:18:44.009Z,24.40
2018-12-02T08:21:14.853Z,23.80
2018-12-02T08:23:46.153Z,25.10
2018-12-02T08:26:17.533Z,24.97
2018-12-02T08:28:48.572Z,24.23
2018-12-02T08:31:19.655Z,26.50
2018-12-02T08:33:50.007Z,23.33
2018-12-02T08:36:21.535Z,24.03
2018-12-02T08:38:52.512Z,24.53
2018-12-02T08:41:23.794Z,25.30
2018-12-02T08:43:54.844Z,24.37
2018-12-02T08:46:25.872Z,24.17
2018-12-02T08:48:56.834Z,24.43
2018-12-02T08:51:27.493Z,25.07
2018-12-02T08:53:58.652Z,24.97
2018-12-02T08:56:29.094Z,24.73
2018-12-02T08:59:00.094Z,24.70
2018-12-02T09:01:31.472Z,26.90
2018-12-02T09:04:02.492Z,26.30
2018-12-02T09:06:33.767Z,27.90
2018-12-02T09:09:06.445Z,26.43
2018-12-02T09:11:37.952Z,26.07
2018-12-02T09:14:09.313Z,25.60
2018-12-02T09:16:40.272Z,26.47
2018-12-02T09:19:11.935Z,24.63
2018-12-02T09:21:43.573Z,27.30
2018-12-02T09:24:14.655Z,25.83
2018-12-02T09:26:46.338Z,25.33
2018-12-02T09:29:17.393Z,27.73
2018-12-02T09:31:48.575Z,24.83
2018-12-02T09:34:19.757Z,27.27
2018-12-02T09:36:50.816Z,28.27
2018-12-02T09:39:22.173Z,26.70
2018-12-02T09:41:54.050Z,27.30
2018-12-02T09:44:25.233Z,28.33
2018-12-02T09:46:56.233Z,26.37
2018-12-02T09:49:27.318Z,26.50
2018-12-02T09:51:57.953Z,25.80
2018-12-02T09:54:29.373Z,28.57
2018-12-02T09:56:59.873Z,25.30
2018-12-02T09:59:31.054Z,31.53
2018-12-02T10:02:02.320Z,25.50
2018-12-02T10:04:33.214Z,24.10
2018-12-02T10:07:04.035Z,26.83
2018-12-02T10:09:35.314Z,26.90
2018-12-02T10:12:05.837Z,26.47
2018-12-02T10:14:36.414Z,26.17
2018-12-02T10:17:07.453Z,27.17
2018-12-02T10:19:38.514Z,27.20
2018-12-02T10:22:09.553Z,26.93
2018-12-02T10:24:40.573Z,26.50
2018-12-02T10:27:11.473Z,32.00
2018-12-02T10:29:42.433Z,31.77
2018-12-02T10:32:13.394Z,28.63
2018-12-02T10:34:43.890Z,28.40
2018-12-02T10:37:15.133Z,33.80
2018-12-02T10:39:45.783Z,36.83
2018-12-02T10:42:16.913Z,31.93
2018-12-02T10:44:47.955Z,31.43
2018-12-02T10:47:18.834Z,29.73
2018-12-02T10:49:50.672Z,29.03
2018-12-02T10:52:21.734Z,30.20
2018-12-02T10:54:52.752Z,30.27
2018-12-02T10:57:23.513Z,30.27
2018-12-02T10:59:54.513Z,29.07
2018-12-02T11:02:26.213Z,29.37
2018-12-02T11:04:57.093Z,31.87
2018-12-02T11:07:28.234Z,30.37
2018-12-02T11:09:58.973Z,30.43
2018-12-02T11:12:29.493Z,32.97
2018-12-02T11:15:00.236Z,31.50
2018-12-02T11:17:31.113Z,30.40
2018-12-02T11:20:02.554Z,33.50
2018-12-02T11:22:33.840Z,33.77
2018-12-02T11:25:04.489Z,32.53
2018-12-02T11:27:36.594Z,30.20
2018-12-02T11:30:11.454Z,32.43
2018-12-02T11:32:42.813Z,31.23
2018-12-02T11:35:15.285Z,30.30
2018-12-02T11:37:46.257Z,32.67
2018-12-02T11:40:19.455Z,30.13
2018-12-02T11:42:51.666Z,33.07
2018-12-02T11:45:23.134Z,32.30
2018-12-02T11:47:55.287Z,30.63
2018-12-02T11:50:27.452Z,33.87
2018-12-02T11:52:58.814Z,34.40
2018-12-02T11:55:29.874Z,34.90
2018-12-02T11:58:00.934Z,33.07
2018-12-02T12:00:34.173Z,30.97
2018-12-02T12:03:04.957Z,33.47
2018-12-02T12:05:36.577Z,34.10
2018-12-02T12:08:10.173Z,34.93
2018-12-02T12:10:41.492Z,32.90
2018-12-02T12:13:11.933Z,33.97
2018-12-02T12:15:43.295Z,32.70
2018-12-02T12:18:14.333Z,37.10
2018-12-02T12:20:45.683Z,36.63
2018-12-02T12:23:19.614Z,34.30
2018-12-02T12:25:50.595Z,31.83
2018-12-02T12:28:21.933Z,34.63
2018-12-02T12:30:52.826Z,35.00
2018-12-02T12:33:23.773Z,34.37
2018-12-02T12:35:54.454Z,35.03
2018-12-02T12:38:25.233Z,33.70
2018-12-02T12:40:56.254Z,36.10
2018-12-02T12:43:30.881Z,36.73
2018-12-02T12:46:02.676Z,37.63
2018-12-02T12:48:33.513Z,40.00
2018-12-02T12:51:04.574Z,34.27
2018-12-02T12:53:35.614Z,34.07
2018-12-02T12:56:06.274Z,33.07
2018-12-02T12:58:37.354Z,33.97
2018-12-02T13:01:08.734Z,34.63
2018-12-02T13:03:39.773Z,33.50
2018-12-02T13:06:10.353Z,33.60
2018-12-02T13:08:41.301Z,33.87
2018-12-02T13:11:12.293Z,35.33
2018-12-02T13:13:44.722Z,34.97
2018-12-02T13:16:15.677Z,36.80
2018-12-02T13:18:46.734Z,34.73
2018-12-02T13:21:17.601Z,32.40
2018-12-02T13:23:49.374Z,34.20
2018-12-02T13:26:20.414Z,34.30
2018-12-02T13:28:51.643Z,32.63
2018-12-02T13:31:21.791Z,34.33
2018-12-02T13:33:52.673Z,34.83
2018-12-02T13:36:23.637Z,34.43
2018-12-02T13:38:54.975Z,33.63
2018-12-02T13:41:26.355Z,33.53
2018-12-02T13:43:57.354Z,31.97
2018-12-02T13:46:28.477Z,34.23
2018-12-02T13:48:59.473Z,35.27
2018-12-02T13:51:31.153Z,35.00
2018-12-02T13:54:07.870Z,32.17
2018-12-02T13:56:38.793Z,31.53
2018-12-02T13:59:09.713Z,31.97
2018-12-02T14:01:40.517Z,36.37
2018-12-02T14:04:11.525Z,32.30
2018-12-02T14:06:42.515Z,30.70
2018-12-02T14:09:13.533Z,32.30
2018-12-02T14:11:44.457Z,33.00
2018-12-02T14:14:15.534Z,31.67
2018-12-02T14:17:00.997Z,33.13
2018-12-02T14:19:34.425Z,33.57
2018-12-02T14:22:03.773Z,33.90
2018-12-02T14:24:34.795Z,33.93
2018-12-02T14:27:06.073Z,33.30
2018-12-02T14:29:39.234Z,32.63
2018-12-02T14:32:12.453Z,31.70
2018-12-02T14:34:43.433Z,33.47
2018-12-02T14:37:14.701Z,31.00
2018-12-02T14:39:45.518Z,33.03
2018-12-02T14:42:16.573Z,32.57
2018-12-02T14:44:47.463Z,32.17
2018-12-02T14:47:18.218Z,31.07
2018-12-02T14:49:49.033Z,33.43
2018-12-02T14:52:20.415Z,32.37
2018-12-02T14:54:51.225Z,41.97
2018-12-02T14:57:23.441Z,35.37
2018-12-02T14:59:54.335Z,32.47
2018-12-02T15:02:25.173Z,32.97
2018-12-02T15:04:56.274Z,33.17
2018-12-02T15:07:27.147Z,34.17
2018-12-02T15:09:57.993Z,33.13
2018-12-02T15:12:29.054Z,33.53
2018-12-02T15:14:59.788Z,34.40
2018-12-02T15:17:30.817Z,34.90
2018-12-02T15:20:01.564Z,31.43
2018-12-02T15:22:32.513Z,31.93
2018-12-02T15:25:03.956Z,31.53
2018-12-02T15:27:34.913Z,32.73
2018-12-02T15:30:07.069Z,34.13
2018-12-02T15:32:39.933Z,33.87
2018-12-02T15:35:11.314Z,32.27
2018-12-02T15:37:42.173Z,30.60
2018-12-02T15:40:15.877Z,31.67
2018-12-02T15:42:49.215Z,30.63
2018-12-02T15:45:20.690Z,33.67
2018-12-02T15:47:51.895Z,35.03
2018-12-02T15:50:25.194Z,32.83
2018-12-02T15:52:56.226Z,34.43
2018-12-02T15:55:29.515Z,35.80
2018-12-02T15:58:01.533Z,34.07
2018-12-02T16:00:34.514Z,33.47
2018-12-02T16:03:05.516Z,33.50
2018-12-02T16:05:36.576Z,34.63
2018-12-02T16:08:17.970Z,32.47
2018-12-02T16:10:49.255Z,32.17
2018-12-02T16:13:20.296Z,31.07
2018-12-02T16:15:51.094Z,31.43
2018-12-02T16:18:22.015Z,31.27
2018-12-02T16:20:54.236Z,31.47
2018-12-02T16:23:26.774Z,30.23
2018-12-02T16:25:58.314Z,32.00
2018-12-02T16:28:29.375Z,30.40
2018-12-02T16:31:00.534Z,30.77
2018-12-02T16:33:31.754Z,30.53
2018-12-02T16:36:03.157Z,35.53
2018-12-02T16:38:34.075Z,32.87
2018-12-02T16:41:05.088Z,31.17
2018-12-02T16:43:35.914Z,32.03
2018-12-02T16:46:06.775Z,28.73
2018-12-02T16:48:37.594Z,34.07
2018-12-02T16:51:08.594Z,32.23
2018-12-02T16:53:39.434Z,30.40
2018-12-02T16:56:11.876Z,29.63
2018-12-02T16:58:46.394Z,31.17
2018-12-02T17:01:20.334Z,31.30
2018-12-02T17:03:52.854Z,33.03
2018-12-02T17:06:23.472Z,32.73
2018-12-02T17:08:54.375Z,32.53
2018-12-02T17:11:25.243Z,28.90
2018-12-02T17:13:56.395Z,30.30
2018-12-02T17:16:27.135Z,28.83
2018-12-02T17:18:59.375Z,26.57
2018-12-02T17:21:30.176Z,37.73
2018-12-02T17:24:01.135Z,34.63
2018-12-02T17:26:31.531Z,35.10
2018-12-02T17:29:02.216Z,31.73
2018-12-02T17:31:37.894Z,35.27
2018-12-02T17:34:08.638Z,34.13
2018-12-02T17:36:39.135Z,35.90
2018-12-02T17:39:13.194Z,37.53
2018-12-02T17:41:46.215Z,35.50
2018-12-02T17:44:16.894Z,36.13
2018-12-02T17:46:47.915Z,36.77
2018-12-02T17:49:18.250Z,36.17
2018-12-02T17:51:48.954Z,35.23
2018-12-02T17:54:20.155Z,41.77
2018-12-02T17:56:50.855Z,36.37
2018-12-02T17:59:21.834Z,36.47
2018-12-02T18:01:53.755Z,37.37
2018-12-02T18:04:24.739Z,34.53
2018-12-02T18:06:55.417Z,30.93
2018-12-02T18:09:26.636Z,32.80
2018-12-02T18:11:57.556Z,34.97
2018-12-02T18:14:29.377Z,41.53
2018-12-02T18:17:00.395Z,37.53
2018-12-02T18:19:31.436Z,36.90
2018-12-02T18:22:02.179Z,33.63
2018-12-02T18:24:33.026Z,37.70
2018-12-02T18:27:04.255Z,33.63
2018-12-02T18:29:35.617Z,33.63
2018-12-02T18:32:07.854Z,31.73
2018-12-02T18:34:38.974Z,30.70
2018-12-02T18:37:11.914Z,34.20
2018-12-02T18:39:43.615Z,33.87
2018-12-02T18:42:15.276Z,35.87
2018-12-02T18:44:46.641Z,33.07
2018-12-02T18:47:17.715Z,32.67
2018-12-02T18:49:48.756Z,32.27
2018-12-02T18:52:19.634Z,29.13
2018-12-02T18:54:51.215Z,30.93
2018-12-02T18:57:22.175Z,28.30
2018-12-02T18:59:53.195Z,28.20
2018-12-02T19:02:24.154Z,26.77
2018-12-02T19:04:55.338Z,29.23
2018-12-02T19:07:26.414Z,28.17
2018-12-02T19:09:57.358Z,32.17
2018-12-02T19:12:28.099Z,30.90
2018-12-02T19:14:58.815Z,29.23
2018-12-02T19:17:29.834Z,29.87
2018-12-02T19:20:00.574Z,29.97
2018-12-02T19:22:31.915Z,30.00
2018-12-02T19:25:02.975Z,29.17
2018-12-02T19:27:33.645Z,28.90
2018-12-02T19:30:05.697Z,30.90
2018-12-02T19:32:36.734Z,29.10
2018-12-02T19:35:13.854Z,31.53
2018-12-02T19:37:45.976Z,29.37
2018-12-02T19:40:18.037Z,27.70
2018-12-02T19:42:48.896Z,30.30
2018-12-02T19:45:21.154Z,28.60
2018-12-02T19:47:52.393Z,29.83
2018-12-02T19:50:42.470Z,29.27
2018-12-02T19:53:14.835Z,27.23
2018-12-02T19:55:47.795Z,28.27
2018-12-02T19:58:18.815Z,29.80
2018-12-02T20:00:51.194Z,27.63
2018-12-02T20:03:28.960Z,29.10
2018-12-02T20:06:00.350Z,28.13
2018-12-02T20:08:30.979Z,27.00
2018-12-02T20:11:02.037Z,29.90
2018-12-02T20:13:34.795Z,27.53
2018-12-02T20:16:11.775Z,26.50
2018-12-02T20:18:42.635Z,29.57
2018-12-02T20:21:13.496Z,29.47
2018-12-02T20:23:49.374Z,30.13
2018-12-02T20:26:19.868Z,29.97
2018-12-02T20:28:53.175Z,30.00
2018-12-02T20:31:27.616Z,28.90
2018-12-02T20:33:58.654Z,31.93
2018-12-02T20:36:29.894Z,30.67
2018-12-02T20:39:01.354Z,30.43
2018-12-02T20:41:32.294Z,30.83
2018-12-02T20:44:03.774Z,33.63
2018-12-02T20:46:34.554Z,30.10
2018-12-02T20:49:05.854Z,29.00
2018-12-02T20:51:37.234Z,32.53
2018-12-02T20:54:08.254Z,31.63
2018-12-02T20:56:39.234Z,31.43
2018-12-02T20:59:10.433Z,31.27
2018-12-02T21:01:42.034Z,30.73
2018-12-02T21:04:14.880Z,31.53
2018-12-02T21:06:45.994Z,31.90
2018-12-02T21:09:17.035Z,29.60
2018-12-02T21:11:48.376Z,32.73
2018-12-02T21:14:19.516Z,30.90
2018-12-02T21:16:50.174Z,43.47
2018-12-02T21:19:21.194Z,38.70
2018-12-02T21:21:52.128Z,33.13
2018-12-02T21:24:22.725Z,32.03
2018-12-02T21:26:53.677Z,32.43
2018-12-02T21:29:25.394Z,33.27
2018-12-02T21:31:56.394Z,32.10
2018-12-02T21:34:27.455Z,34.17
2018-12-02T21:36:58.383Z,31.70
2018-12-02T21:39:29.594Z,30.13
2018-12-02T21:42:00.574Z,30.57
2018-12-02T21:44:31.609Z,31.83
2018-12-02T21:47:02.654Z,32.00
2018-12-02T21:49:33.694Z,31.53
2018-12-02T21:52:04.715Z,31.60
2018-12-02T21:54:35.256Z,31.27
2018-12-02T21:57:06.795Z,32.53
2018-12-02T21:59:37.859Z,27.23
2018-12-02T22:02:08.874Z,28.67
2018-12-02T22:04:39.774Z,28.47
2018-12-02T22:07:10.716Z,28.77
2018-12-02T22:09:41.474Z,30.67
2018-12-02T22:12:12.734Z,29.60
2018-12-02T22:14:43.436Z,29.20
2018-12-02T22:17:14.417Z,30.03
2018-12-02T22:19:45.538Z,31.33
2018-12-02T22:22:15.974Z,28.27
2018-12-02T22:24:47.615Z,30.07
2018-12-02T22:27:18.116Z,30.53
2018-12-02T22:29:49.034Z,31.63
2018-12-02T22:32:19.895Z,31.70
2018-12-02T22:34:51.475Z,32.77
2018-12-02T22:37:22.433Z,32.17
2018-12-02T22:39:52.715Z,29.53
2018-12-02T22:42:24.575Z,31.83
2018-12-02T22:44:55.614Z,33.80
2018-12-02T22:47:27.323Z,33.13
2018-12-02T22:49:58.335Z,31.30
2018-12-02T22:52:29.353Z,33.57
2018-12-02T22:55:00.433Z,31.87
2018-12-02T22:57:31.774Z,28.77
2018-12-02T23:00:02.677Z,28.27
2018-12-02T23:02:39.313Z,29.80
2018-12-02T23:05:10.121Z,31.67
2018-12-02T23:07:41.393Z,29.27
2018-12-02T23:10:13.433Z,27.00
2018-12-02T23:12:44.614Z,32.50
2018-12-02T23:15:15.254Z,29.53
2018-12-02T23:17:45.873Z,33.63
2018-12-02T23:20:17.535Z,30.50
2018-12-02T23:22:48.273Z,31.97
2018-12-02T23:25:19.292Z,30.57
2018-12-02T23:27:49.585Z,34.97
2018-12-02T23:30:23.147Z,35.50
2018-12-02T23:32:54.010Z,36.30
2018-12-02T23:35:24.752Z,34.60
2018-12-02T23:37:55.693Z,34.80
2018-12-02T23:40:27.453Z,34.07
2018-12-02T23:42:58.513Z,32.17
2018-12-02T23:45:29.433Z,31.87
2018-12-02T23:48:01.592Z,34.53
2018-12-02T23:50:32.494Z,32.00
2018-12-02T23:53:03.593Z,31.60
2018-12-02T23:55:34.654Z,30.87
2018-12-02T23:58:05.333Z,29.27
